Time;durP1;ratioP1;P1;durP2;ratioP2;P2;SDS_P1;SDS_P2;PMS_P1;PMS_P2;Temp;Humidity;BMP_temperature;BMP_pressure;BME280_temperature;BME280_humidity;BME280_pressure;Samples;Min_cycle;Max_cycle;Signal;HPM_P1;HPM_P2
2024/02/14 05:06:22;;;;;;;0.30;0.30;;;6.70;99.90;;;;;;5549590;23;20251;-67
2024/02/14 05:08:48;;;;;;;0.30;0.30;;;6.70;99.90;;;;;;4957192;29;20188;-67
2024/02/14 05:11:14;;;;;;;0.30;0.30;;;6.80;99.90;;;;;;4957533;29;20184;-67
2024/02/14 05:13:41;;;;;;;0.30;0.30;;;6.90;99.90;;;;;;4957483;29;20272;-68
2024/02/14 05:16:08;;;;;;;0.38;0.38;;;6.90;99.90;;;;;;4939685;29;20689;-68
2024/02/14 05:18:33;;;;;;;0.30;0.30;;;6.90;99.90;;;;;;4957288;29;20180;-68
2024/02/14 05:20:59;;;;;;;0.43;0.43;;;7.00;99.90;;;;;;4957172;29;20563;-67
2024/02/14 05:23:25;;;;;;;0.30;0.30;;;7.00;99.90;;;;;;4940015;29;20607;-69
2024/02/14 05:25:51;;;;;;;0.30;0.30;;;7.10;99.90;;;;;;4956676;28;20189;-69
2024/02/14 05:28:18;;;;;;;0.80;0.80;;;7.20;99.90;;;;;;4957154;29;20171;-70
2024/02/14 05:30:44;;;;;;;0.40;0.40;;;7.20;99.90;;;;;;4957090;29;20468;-68
2024/02/14 05:33:10;;;;;;;0.32;0.32;;;7.30;99.90;;;;;;4939696;29;20265;-68
2024/02/14 05:35:36;;;;;;;0.30;0.30;;;7.30;99.90;;;;;;4955768;28;20559;-69
2024/02/14 05:38:02;;;;;;;0.40;0.40;;;7.30;99.90;;;;;;4956818;29;20168;-68
2024/02/14 05:40:28;;;;;;;0.30;0.30;;;7.30;99.90;;;;;;4956900;29;20553;-68
2024/02/14 05:42:53;;;;;;;0.30;0.30;;;7.20;99.90;;;;;;4956818;29;20407;-69
2024/02/14 05:45:19;;;;;;;0.40;0.40;;;7.20;99.90;;;;;;4956478;28;20572;-67
2024/02/14 05:47:44;;;;;;;0.30;0.30;;;7.30;99.90;;;;;;4956736;29;20169;-68
2024/02/14 05:50:11;;;;;;;0.33;0.33;;;7.20;99.90;;;;;;4956626;29;20264;-69
2024/02/14 05:52:37;;;;;;;0.40;0.40;;;7.20;99.90;;;;;;4956546;29;20169;-67
2024/02/14 05:55:04;;;;;;;0.30;0.30;;;7.30;99.90;;;;;;4955424;28;20187;-68
2024/02/14 05:57:30;;;;;;;0.30;0.30;;;7.30;99.90;;;;;;4956560;29;20177;-70
2024/02/14 05:59:56;;;;;;;0.30;0.30;;;7.30;99.90;;;;;;4956724;29;20208;-68
2024/02/14 06:02:21;;;;;;;0.30;0.30;;;7.30;99.90;;;;;;4956626;29;20281;-69
2024/02/14 06:04:48;;;;;;;0.40;0.40;;;7.40;99.90;;;;;;4956181;29;20176;-69
2024/02/14 06:07:14;;;;;;;0.40;0.40;;;7.50;99.90;;;;;;4955911;28;20204;-69
2024/02/14 06:09:39;;;;;;;1.00;0.97;;;7.50;99.90;;;;;;4955980;29;20203;-70
2024/02/14 06:12:06;;;;;;;0.47;0.47;;;7.50;99.90;;;;;;4955843;29;20173;-69
2024/02/14 06:14:33;;;;;;;0.30;0.30;;;7.60;99.90;;;;;;4955806;29;20173;-70
2024/02/14 06:17:00;;;;;;;0.30;0.30;;;7.70;99.90;;;;;;4956024;28;20193;-69
2024/02/14 06:19:26;;;;;;;0.40;0.40;;;7.70;99.90;;;;;;4956130;29;20220;-69
2024/02/14 06:21:53;;;;;;;0.30;0.30;;;7.80;99.90;;;;;;4955876;29;20169;-67
2024/02/14 06:24:19;;;;;;;0.30;0.30;;;7.80;99.90;;;;;;4951213;29;20722;-68
2024/02/14 06:26:45;;;;;;;0.40;0.40;;;7.80;99.90;;;;;;4955721;29;20221;-69
2024/02/14 06:29:12;;;;;;;0.30;0.30;;;7.90;99.90;;;;;;4956032;29;20203;-69
2024/02/14 06:31:39;;;;;;;0.40;0.40;;;7.90;99.90;;;;;;4937768;29;20257;-69
2024/02/14 06:34:06;;;;;;;0.40;0.40;;;7.90;99.90;;;;;;4936293;29;20178;-68
2024/02/14 06:36:32;;;;;;;0.30;0.30;;;7.90;99.90;;;;;;4936000;29;20559;-65
2024/02/14 06:38:58;;;;;;;0.30;0.30;;;8.00;99.90;;;;;;4937983;29;20173;-66
2024/02/14 06:41:25;;;;;;;0.30;0.30;;;8.00;99.90;;;;;;4945374;28;20193;-67
2024/02/14 06:43:51;;;;;;;0.30;0.30;;;8.00;99.90;;;;;;4955172;28;20189;-65
2024/02/14 06:46:16;;;;;;;0.30;0.30;;;8.00;99.90;;;;;;4919053;29;20237;-66
2024/02/14 06:48:42;;;;;;;0.30;0.30;;;8.00;99.90;;;;;;4939482;29;20188;-66
2024/02/14 06:51:08;;;;;;;0.30;0.30;;;8.00;99.90;;;;;;4955307;28;20185;-65
2024/02/14 06:53:33;;;;;;;0.30;0.30;;;8.00;99.90;;;;;;4955450;29;20260;-65
2024/02/14 06:55:59;;;;;;;0.30;0.30;;;8.00;99.90;;;;;;4954869;28;20223;-67
2024/02/14 06:58:24;;;;;;;0.30;0.30;;;8.10;99.90;;;;;;4944363;28;20476;-67
2024/02/14 07:00:50;;;;;;;0.63;0.63;;;8.20;99.90;;;;;;4942349;29;20230;-67
2024/02/14 07:03:16;;;;;;;0.40;0.40;;;8.20;99.90;;;;;;4954325;29;20616;-67
2024/02/14 07:05:42;;;;;;;0.30;0.30;;;8.20;99.90;;;;;;4953996;28;20208;-69
2024/02/14 07:08:07;;;;;;;0.30;0.30;;;8.20;99.90;;;;;;4931293;29;20182;-65
2024/02/14 07:10:33;;;;;;;0.40;0.40;;;8.20;99.90;;;;;;4940825;29;20182;-66
2024/02/14 07:12:59;;;;;;;0.40;0.40;;;8.30;99.90;;;;;;4939501;28;20181;-68
2024/02/14 07:15:28;;;;;;;0.30;0.30;;;8.30;99.90;;;;;;4952808;29;20234;-69
2024/02/14 07:17:54;;;;;;;0.30;0.30;;;8.30;99.90;;;;;;4954142;29;20255;-68
2024/02/14 07:20:21;;;;;;;0.30;0.30;;;8.40;99.90;;;;;;4935419;29;20713;-69
2024/02/14 07:22:52;;;;;;;0.30;0.30;;;8.40;99.90;;;;;;4953835;29;20172;-71
2024/02/14 07:25:19;;;;;;;0.40;0.40;;;8.40;99.90;;;;;;4936349;29;20227;-66
2024/02/14 07:27:45;;;;;;;0.30;0.30;;;8.50;99.90;;;;;;4953359;29;20169;-69
2024/02/14 07:30:12;;;;;;;0.30;0.30;;;8.50;99.90;;;;;;4934810;29;20257;-68
2024/02/14 07:32:38;;;;;;;0.40;0.40;;;8.60;99.90;;;;;;4935306;29;20225;-69
2024/02/14 07:35:05;;;;;;;0.30;0.30;;;8.70;99.90;;;;;;4935213;29;20236;-67
2024/02/14 07:37:30;;;;;;;0.30;0.30;;;8.70;99.90;;;;;;4935881;29;20224;-69
2024/02/14 07:39:56;;;;;;;0.30;0.30;;;8.80;99.90;;;;;;4935782;29;20236;-64
2024/02/14 07:42:21;;;;;;;0.70;0.50;;;8.80;99.90;;;;;;4918617;29;20170;-68
2024/02/14 07:44:47;;;;;;;0.30;0.30;;;8.80;99.90;;;;;;4935845;29;20203;-65
2024/02/14 07:47:13;;;;;;;0.30;0.30;;;8.90;99.90;;;;;;4918845;29;20194;-68
2024/02/14 07:49:40;;;;;;;0.30;0.30;;;8.90;99.90;;;;;;4936068;29;20768;-65
2024/02/14 07:52:06;;;;;;;0.30;0.30;;;8.90;99.90;;;;;;4935520;29;20192;-67
2024/02/14 07:54:32;;;;;;;0.30;0.30;;;8.80;99.90;;;;;;4942970;29;20173;-68
2024/02/14 07:56:58;;;;;;;0.50;0.50;;;8.80;99.90;;;;;;4954713;28;20220;-68
2024/02/14 07:59:23;;;;;;;0.30;0.30;;;8.90;99.90;;;;;;4971293;28;20316;-69
2024/02/14 08:01:49;;;;;;;0.40;0.40;;;9.00;99.90;;;;;;4968025;28;20432;-66
2024/02/14 08:04:15;;;;;;;0.30;0.30;;;9.00;99.90;;;;;;4958090;28;20177;-66
2024/02/14 08:06:41;;;;;;;0.30;0.30;;;9.10;99.90;;;;;;4954541;29;20199;-68
2024/02/14 08:09:09;;;;;;;0.30;0.30;;;9.10;99.90;;;;;;4954650;29;20181;-68
2024/02/14 08:11:36;;;;;;;0.30;0.30;;;9.20;99.90;;;;;;4954917;29;20176;-66
2024/02/14 08:14:03;;;;;;;0.30;0.28;;;9.20;99.90;;;;;;4960702;28;20186;-67
2024/02/14 08:16:28;;;;;;;0.32;0.32;;;9.20;99.90;;;;;;4947852;28;20257;-66
2024/02/14 08:18:58;;;;;;;0.40;0.40;;;9.30;99.90;;;;;;4977787;28;20525;-69
2024/02/14 08:21:28;;;;;;;0.30;0.30;;;9.40;99.90;;;;;;4968577;28;20246;-67
2024/02/14 08:23:54;;;;;;;0.30;0.30;;;9.60;99.90;;;;;;4966264;28;20535;-68
2024/02/14 08:26:22;;;;;;;0.30;0.20;;;9.70;99.90;;;;;;4948256;28;20444;-66
2024/02/14 08:28:48;;;;;;;0.30;0.30;;;9.90;99.90;;;;;;4967581;28;20178;-67
2024/02/14 08:31:14;;;;;;;0.30;0.30;;;9.90;99.90;;;;;;4949944;28;20481;-67
2024/02/14 08:33:40;;;;;;;0.30;0.30;;;10.00;99.90;;;;;;4965841;28;20509;-69
2024/02/14 08:36:06;;;;;;;0.30;0.30;;;10.00;99.90;;;;;;4966940;28;20202;-68
2024/02/14 08:38:32;;;;;;;4.93;1.90;;;10.10;99.90;;;;;;4965252;28;20490;-66
2024/02/14 08:40:58;;;;;;;0.30;0.30;;;10.00;99.90;;;;;;4965714;28;20456;-69
2024/02/14 08:43:33;;;;;;;0.40;0.40;;;10.00;99.90;;;;;;4967686;28;20421;-67
2024/02/14 08:45:59;;;;;;;0.30;0.30;;;10.00;99.90;;;;;;4967302;28;20329;-67
2024/02/14 08:48:27;;;;;;;0.33;0.33;;;10.00;99.90;;;;;;4962842;28;20414;-67
2024/02/14 08:50:53;;;;;;;0.30;0.30;;;10.00;99.90;;;;;;4965833;28;20308;-70
2024/02/14 08:53:19;;;;;;;0.30;0.30;;;10.00;99.90;;;;;;4967280;28;20760;-67
2024/02/14 08:55:44;;;;;;;0.30;0.30;;;10.20;99.90;;;;;;4964895;28;20520;-66
2024/02/14 08:58:13;;;;;;;0.37;0.37;;;10.30;99.90;;;;;;4966988;28;20541;-67
2024/02/14 09:00:39;;;;;;;0.30;0.30;;;10.50;99.90;;;;;;4976358;28;20226;-67
2024/02/14 09:03:05;;;;;;;0.30;0.30;;;10.80;99.90;;;;;;4976751;28;20389;-64
2024/02/14 09:05:31;;;;;;;0.30;0.30;;;11.10;99.90;;;;;;4961727;28;20443;-70
2024/02/14 09:07:57;;;;;;;0.30;0.30;;;11.40;99.90;;;;;;4958118;29;20914;-66
2024/02/14 09:10:23;;;;;;;0.30;0.30;;;11.60;99.90;;;;;;4965039;28;20424;-68
2024/02/14 09:12:49;;;;;;;0.30;0.30;;;11.90;99.90;;;;;;4976327;28;20415;-69
2024/02/14 09:15:14;;;;;;;0.30;0.20;;;12.00;99.90;;;;;;4975867;28;20247;-70
2024/02/14 09:17:41;;;;;;;0.30;0.30;;;12.20;99.90;;;;;;4958379;28;20524;-67
2024/02/14 09:20:09;;;;;;;0.30;0.30;;;12.50;99.90;;;;;;4937857;29;20203;-67
2024/02/14 09:22:38;;;;;;;0.30;0.20;;;12.70;99.90;;;;;;4937755;29;20487;-68
2024/02/14 09:25:04;;;;;;;0.30;0.30;;;12.90;99.90;;;;;;4955857;28;20427;-68
2024/02/14 09:27:30;;;;;;;0.30;0.23;;;13.10;99.90;;;;;;4965915;28;20438;-69
2024/02/14 09:29:56;;;;;;;0.30;0.30;;;13.10;99.50;;;;;;4966015;28;20756;-66
2024/02/14 09:32:22;;;;;;;0.30;0.30;;;13.10;99.50;;;;;;4975510;28;20401;-68
2024/02/14 09:34:47;;;;;;;0.33;0.33;;;13.10;99.70;;;;;;4975504;28;20243;-66
2024/02/14 09:37:16;;;;;;;0.30;0.20;;;12.90;99.80;;;;;;4957518;28;20205;-68
2024/02/14 09:39:43;;;;;;;0.30;0.20;;;12.90;99.90;;;;;;4961871;28;20201;-68
2024/02/14 09:42:12;;;;;;;0.30;0.30;;;12.80;99.90;;;;;;4965444;28;20940;-69
2024/02/14 09:44:40;;;;;;;0.30;0.20;;;12.90;99.70;;;;;;4969107;28;20383;-68
2024/02/14 09:47:09;;;;;;;0.60;0.60;;;12.90;99.80;;;;;;4975454;28;20444;-68
2024/02/14 09:49:38;;;;;;;0.30;0.30;;;13.00;99.90;;;;;;4958382;28;20416;-66
2024/02/14 09:52:05;;;;;;;0.30;0.30;;;13.00;99.70;;;;;;4974235;28;20412;-70
2024/02/14 09:54:34;;;;;;;0.30;0.20;;;13.10;99.90;;;;;;4955833;29;20431;-68
2024/02/14 09:57:02;;;;;;;0.30;0.30;;;13.30;99.60;;;;;;4955821;28;20439;-68
2024/02/14 09:59:28;;;;;;;0.30;0.30;;;13.60;99.20;;;;;;4938655;29;20491;-74
2024/02/14 10:01:54;;;;;;;0.30;0.30;;;13.80;99.10;;;;;;4955986;29;20410;-69
2024/02/14 10:04:21;;;;;;;0.30;0.20;;;14.00;98.80;;;;;;4955586;29;20420;-73
2024/02/14 10:06:48;;;;;;;0.30;0.30;;;14.40;98.70;;;;;;4957819;28;20189;-74
2024/02/14 10:09:22;;;;;;;0.30;0.30;;;14.90;98.40;;;;;;4956018;29;20396;-69
2024/02/14 10:11:49;;;;;;;0.30;0.30;;;15.50;97.80;;;;;;4955825;29;20405;-70
2024/02/14 10:14:15;;;;;;;0.30;0.30;;;15.80;96.30;;;;;;4955475;29;20401;-73
2024/02/14 10:16:41;;;;;;;0.30;0.27;;;15.80;96.00;;;;;;4938095;29;20435;-70
2024/02/14 10:19:18;;;;;;;1.13;0.70;;;16.00;96.50;;;;;;4955419;29;20537;-72
2024/02/14 10:21:55;;;;;;;0.30;0.20;;;16.20;96.00;;;;;;4954962;29;20434;-74
2024/02/14 10:24:20;;;;;;;0.30;0.20;;;16.30;96.10;;;;;;4955007;29;20408;-76
2024/02/14 10:26:46;;;;;;;0.83;0.83;;;16.80;96.20;;;;;;4955505;28;20521;-74
2024/02/14 10:29:14;;;;;;;0.30;0.20;;;17.40;95.70;;;;;;4955385;29;20177;-76
2024/02/14 10:31:40;;;;;;;0.30;0.30;;;18.10;94.80;;;;;;4955620;29;20169;-72
2024/02/14 10:34:07;;;;;;;0.30;0.30;;;18.50;93.90;;;;;;4933714;29;20413;-74
2024/02/14 10:36:35;;;;;;;0.30;0.20;;;18.70;93.30;;;;;;4936244;29;20440;-73
2024/02/14 10:39:03;;;;;;;0.30;0.30;;;18.90;92.70;;;;;;4936345;29;20431;-77
2024/02/14 10:41:34;;;;;;;0.30;0.20;;;19.20;92.50;;;;;;4936094;29;20520;-70
2024/02/14 10:44:07;;;;;;;0.30;0.30;;;19.40;92.20;;;;;;4937105;29;20427;-72
2024/02/14 10:46:37;;;;;;;0.30;0.20;;;19.60;91.90;;;;;;4953318;29;20439;-73
2024/02/14 10:49:04;;;;;;;0.30;0.30;;;20.00;91.80;;;;;;4936131;29;20419;-69
2024/02/14 10:51:35;;;;;;;0.30;0.30;;;20.30;91.40;;;;;;4953813;29;20425;-77
2024/02/14 10:54:05;;;;;;;0.70;0.70;;;20.60;91.40;;;;;;4953790;29;20461;-76
2024/02/14 10:56:32;;;;;;;0.30;0.20;;;21.00;90.90;;;;;;4953158;29;20542;-70
2024/02/14 10:59:01;;;;;;;0.30;0.20;;;21.40;90.70;;;;;;4937291;29;20467;-74
2024/02/14 11:01:31;;;;;;;0.30;0.30;;;21.80;90.30;;;;;;4955282;29;20466;-71
2024/02/14 11:03:59;;;;;;;0.30;0.20;;;22.00;90.00;;;;;;4955762;29;20415;-73
2024/02/14 11:06:26;;;;;;;0.30;0.30;;;22.20;87.90;;;;;;4955233;28;20782;-75
2024/02/14 11:09:01;;;;;;;0.30;0.30;;;22.20;87.80;;;;;;4954933;29;20406;-73
2024/02/14 11:11:30;;;;;;;0.40;0.40;;;21.90;87.90;;;;;;4955056;29;20791;-72
2024/02/14 11:13:56;;;;;;;0.50;0.47;;;21.30;89.50;;;;;;4954868;29;20433;-73
2024/02/14 11:16:29;;;;;;;0.30;0.30;;;20.80;90.00;;;;;;4954746;28;20480;-71
2024/02/14 11:19:12;;;;;;;0.30;0.20;;;20.30;90.50;;;;;;4954810;29;20379;-74
2024/02/14 11:21:45;;;;;;;0.30;0.20;;;19.60;91.00;;;;;;4955259;29;20477;-70
2024/02/14 11:24:12;;;;;;;0.30;0.30;;;18.80;91.70;;;;;;4946928;29;20446;-74
2024/02/14 11:26:48;;;;;;;0.30;0.20;;;18.20;92.50;;;;;;4935921;29;20884;-70
2024/02/14 11:29:17;;;;;;;0.30;0.30;;;17.60;93.80;;;;;;4935966;29;20472;-73
2024/02/14 11:31:44;;;;;;;0.30;0.20;;;17.10;94.50;;;;;;4936114;29;20413;-70
2024/02/14 11:34:13;;;;;;;0.30;0.30;;;16.70;95.20;;;;;;4946038;29;20413;-76
2024/02/14 11:36:41;;;;;;;0.30;0.20;;;16.40;95.80;;;;;;4955644;29;20508;-67
2024/02/14 11:39:07;;;;;;;0.30;0.30;;;16.00;96.50;;;;;;4958250;29;20408;-74
2024/02/14 11:41:37;;;;;;;0.30;0.30;;;15.80;97.10;;;;;;4957880;29;20460;-70
2024/02/14 11:44:04;;;;;;;0.30;0.30;;;15.60;97.60;;;;;;4960556;29;20169;-73
2024/02/14 11:46:34;;;;;;;0.30;0.30;;;15.30;98.50;;;;;;4954860;29;20530;-70
2024/02/14 11:49:02;;;;;;;0.30;0.30;;;15.10;98.80;;;;;;4940485;29;20426;-67
2024/02/14 11:51:37;;;;;;;0.30;0.20;;;15.00;99.00;;;;;;4939200;29;20386;-69
2024/02/14 11:54:06;;;;;;;0.30;0.30;;;14.90;99.70;;;;;;4944422;29;20415;-71
2024/02/14 11:56:38;;;;;;;0.30;0.30;;;14.80;99.90;;;;;;4942641;29;20432;-70
2024/02/14 11:59:06;;;;;;;0.30;0.30;;;14.70;99.90;;;;;;4940038;29;20404;-74
2024/02/14 12:01:37;;;;;;;0.30;0.30;;;14.70;99.90;;;;;;4935775;29;20991;-71
2024/02/14 12:04:05;;;;;;;0.40;0.40;;;14.70;99.90;;;;;;4961130;29;20410;-74
2024/02/14 12:06:34;;;;;;;0.30;0.20;;;14.60;99.90;;;;;;4960377;29;20456;-70
2024/02/14 12:09:09;;;;;;;0.30;0.30;;;14.60;99.90;;;;;;4961119;29;20524;-71
2024/02/14 12:11:38;;;;;;;0.30;0.20;;;14.60;99.90;;;;;;4943595;29;20446;-70
2024/02/14 12:14:11;;;;;;;0.30;0.30;;;14.50;99.90;;;;;;4960198;29;20435;-72
2024/02/14 12:16:37;;;;;;;0.30;0.30;;;14.50;99.90;;;;;;4963239;28;20424;-69
2024/02/14 12:19:11;;;;;;;0.30;0.30;;;14.50;99.90;;;;;;4975652;28;20456;-70
2024/02/14 12:21:37;;;;;;;0.30;0.30;;;14.50;99.90;;;;;;4978899;28;20418;-75
2024/02/14 12:24:07;;;;;;;0.30;0.20;;;14.50;99.90;;;;;;4978453;28;20415;-71
2024/02/14 12:26:33;;;;;;;0.30;0.20;;;14.50;99.90;;;;;;4977806;28;20484;-73
2024/02/14 12:29:03;;;;;;;0.30;0.20;;;14.50;99.90;;;;;;4955534;29;20430;-70
2024/02/14 12:31:30;;;;;;;0.30;0.30;;;14.50;99.90;;;;;;4958756;29;20402;-67
2024/02/14 12:34:01;;;;;;;0.30;0.30;;;14.40;99.90;;;;;;4958382;29;20410;-74
2024/02/14 12:36:28;;;;;;;0.30;0.20;;;14.50;99.90;;;;;;4958015;28;20430;-74
2024/02/14 12:38:57;;;;;;;0.30;0.30;;;14.40;99.90;;;;;;4958311;29;20445;-71
2024/02/14 12:41:29;;;;;;;0.30;0.20;;;14.40;99.90;;;;;;4958605;29;20457;-68
2024/02/14 12:43:56;;;;;;;0.30;0.20;;;14.40;99.90;;;;;;4935968;29;20935;-68
2024/02/14 12:46:22;;;;;;;0.30;0.30;;;14.40;99.90;;;;;;4921183;29;20440;-70
2024/02/14 12:48:48;;;;;;;0.30;0.30;;;14.50;99.90;;;;;;4939304;29;20407;-69
2024/02/14 12:51:14;;;;;;;0.30;0.30;;;14.50;99.90;;;;;;4921537;29;20566;-73
2024/02/14 12:53:40;;;;;;;0.30;0.30;;;14.60;99.90;;;;;;4921687;29;20410;-74
2024/02/14 12:56:07;;;;;;;3.10;1.13;;;14.80;99.90;;;;;;4921122;29;20963;-73
2024/02/14 12:58:32;;;;;;;0.30;0.30;;;14.90;99.90;;;;;;4950021;29;20426;-75
2024/02/14 13:00:58;;;;;;;0.30;0.20;;;15.00;99.90;;;;;;4957798;29;20459;-73
2024/02/14 13:03:24;;;;;;;0.30;0.30;;;15.10;99.90;;;;;;4957378;28;20260;-73
2024/02/14 13:05:50;;;;;;;0.37;0.37;;;15.10;99.90;;;;;;4957369;28;20504;-77
2024/02/14 13:08:16;;;;;;;0.30;0.30;;;15.30;99.90;;;;;;4957416;29;20923;-70
2024/02/14 13:10:43;;;;;;;0.30;0.20;;;15.40;99.90;;;;;;4957627;29;20418;-72
2024/02/14 13:13:09;;;;;;;0.30;0.30;;;15.40;99.90;;;;;;4957092;29;20188;-71
2024/02/14 13:15:34;;;;;;;0.30;0.30;;;15.50;99.90;;;;;;4956464;29;20428;-72
2024/02/14 13:18:00;;;;;;;0.40;0.40;;;15.50;99.90;;;;;;4957519;29;20632;-69
2024/02/14 13:20:26;;;;;;;0.70;0.47;;;15.50;99.90;;;;;;4957091;29;20293;-75
2024/02/14 13:22:51;;;;;;;0.30;0.30;;;15.50;99.90;;;;;;4957261;29;20169;-67
2024/02/14 13:25:17;;;;;;;0.30;0.30;;;15.60;99.90;;;;;;4956691;29;20391;-65
2024/02/14 13:27:44;;;;;;;0.30;0.20;;;15.70;99.90;;;;;;4940892;29;20188;-65
2024/02/14 13:30:10;;;;;;;0.30;0.30;;;15.70;99.90;;;;;;4952289;29;20603;-69
2024/02/14 13:32:36;;;;;;;0.40;0.40;;;15.80;99.90;;;;;;4939681;29;20415;-68
2024/02/14 13:35:01;;;;;;;0.40;0.40;;;15.80;99.90;;;;;;4956438;29;20503;-69
2024/02/14 13:37:27;;;;;;;0.30;0.30;;;15.80;99.90;;;;;;4956997;29;20814;-68
2024/02/14 13:39:53;;;;;;;0.30;0.20;;;15.80;99.90;;;;;;4939397;29;20205;-68
2024/02/14 13:42:18;;;;;;;0.30;0.20;;;15.70;99.90;;;;;;4956138;29;20256;-68
2024/02/14 13:44:44;;;;;;;0.30;0.30;;;15.60;99.90;;;;;;4937231;29;20537;-66
2024/02/14 13:47:10;;;;;;;0.30;0.30;;;15.60;99.90;;;;;;4920499;29;20190;-68
2024/02/14 13:49:35;;;;;;;0.30;0.30;;;15.70;99.90;;;;;;4937688;29;20677;-71
2024/02/14 13:52:01;;;;;;;0.30;0.30;;;15.70;99.90;;;;;;4937385;29;20412;-71
2024/02/14 13:54:26;;;;;;;0.30;0.20;;;15.70;99.90;;;;;;4937263;29;20184;-72
2024/02/14 13:56:52;;;;;;;0.30;0.30;;;15.70;99.90;;;;;;4937319;29;20661;-70
2024/02/14 13:59:18;;;;;;;0.30;0.30;;;15.70;99.90;;;;;;4955276;29;20190;-70
2024/02/14 14:01:46;;;;;;;0.30;0.20;;;15.60;99.90;;;;;;4956681;29;20217;-70
2024/02/14 14:04:12;;;;;;;0.30;0.20;;;15.70;99.90;;;;;;4956577;29;20177;-73
2024/02/14 14:06:39;;;;;;;0.30;0.27;;;15.70;99.90;;;;;;4955904;28;20570;-71
2024/02/14 14:09:07;;;;;;;0.30;0.20;;;15.70;99.90;;;;;;4939522;29;21035;-72
2024/02/14 14:11:33;;;;;;;0.30;0.30;;;15.80;99.90;;;;;;4955520;29;20428;-71
2024/02/14 14:14:00;;;;;;;0.30;0.30;;;15.80;99.90;;;;;;4921411;29;20404;-73
2024/02/14 14:16:26;;;;;;;0.30;0.20;;;15.80;99.90;;;;;;4936142;29;20432;-71
2024/02/14 14:18:51;;;;;;;0.30;0.20;;;15.80;99.90;;;;;;4919780;29;20437;-71
2024/02/14 14:21:17;;;;;;;0.30;0.30;;;15.80;99.90;;;;;;4919654;29;20801;-69
2024/02/14 14:23:43;;;;;;;0.30;0.20;;;15.80;99.90;;;;;;4937314;29;20227;-72
2024/02/14 14:26:10;;;;;;;0.30;0.30;;;15.80;99.90;;;;;;4940021;29;20202;-72
2024/02/14 14:28:35;;;;;;;0.30;0.30;;;15.70;99.90;;;;;;4949020;29;20386;-70
2024/02/14 14:31:02;;;;;;;0.30;0.30;;;15.60;99.90;;;;;;4950221;29;20443;-71
2024/02/14 14:33:27;;;;;;;0.30;0.20;;;15.60;99.90;;;;;;4955402;29;20448;-72
2024/02/14 14:35:54;;;;;;;0.30;0.30;;;15.60;99.90;;;;;;4937942;29;20608;-71
2024/02/14 14:38:20;;;;;;;0.30;0.30;;;15.60;99.90;;;;;;4955593;29;20165;-72
2024/02/14 14:40:47;;;;;;;0.30;0.30;;;15.50;99.90;;;;;;4944788;29;20475;-72
2024/02/14 14:43:13;;;;;;;0.70;0.50;;;15.50;99.90;;;;;;4935641;29;20761;-73
2024/02/14 14:45:39;;;;;;;0.30;0.30;;;15.40;99.90;;;;;;4935306;29;20483;-73
2024/02/14 14:48:05;;;;;;;0.30;0.20;;;15.40;99.90;;;;;;4918529;29;20422;-71
2024/02/14 14:50:32;;;;;;;0.30;0.30;;;15.30;99.90;;;;;;4952238;29;20241;-72
2024/02/14 14:53:00;;;;;;;0.30;0.30;;;15.30;99.90;;;;;;4954776;29;20380;-72
2024/02/14 14:55:50;;;;;;;0.30;0.30;;;15.30;99.90;;;;;;4954930;28;20468;-76
2024/02/14 14:58:16;;;;;;;0.30;0.30;;;15.20;99.90;;;;;;4955696;29;20385;-71
2024/02/14 15:00:42;;;;;;;0.30;0.30;;;15.20;99.90;;;;;;4938526;29;20441;-73
2024/02/14 15:03:12;;;;;;;0.50;0.50;;;15.20;99.90;;;;;;4937743;29;20394;-72
2024/02/14 15:05:38;;;;;;;0.30;0.30;;;15.10;99.90;;;;;;4955114;29;20929;-72
2024/02/14 15:08:07;;;;;;;0.30;0.20;;;15.10;99.90;;;;;;4955427;29;20423;-71
2024/02/14 15:10:33;;;;;;;0.30;0.30;;;15.00;99.90;;;;;;4955514;29;20405;-74
2024/02/14 15:12:59;;;;;;;0.30;0.30;;;15.00;99.90;;;;;;4955445;29;20384;-72
2024/02/14 15:15:25;;;;;;;0.30;0.30;;;15.00;99.90;;;;;;4954974;29;20443;-71
2024/02/14 15:17:51;;;;;;;0.30;0.20;;;15.00;99.90;;;;;;4931912;29;20761;-72
2024/02/14 15:20:16;;;;;;;0.30;0.20;;;15.00;99.90;;;;;;4935513;29;20518;-74
2024/02/14 15:22:42;;;;;;;0.30;0.20;;;14.90;99.90;;;;;;4935845;29;20174;-74
2024/02/14 15:25:08;;;;;;;0.67;0.53;;;15.00;99.90;;;;;;4946177;28;20177;-73
2024/02/14 15:27:36;;;;;;;0.30;0.20;;;15.00;99.90;;;;;;4937379;29;20186;-73
2024/02/14 15:35:30;;;;;;;0.30;0.30;;;14.90;99.90;;;;;;4954413;28;20410;-74
2024/02/14 15:37:55;;;;;;;0.30;0.20;;;14.90;99.90;;;;;;4954141;29;20391;-74
2024/02/14 15:40:22;;;;;;;0.30;0.30;;;14.90;99.90;;;;;;4954852;29;20292;-73
2024/02/14 15:42:48;;;;;;;0.30;0.27;;;14.90;99.90;;;;;;4955253;29;20570;-72
2024/02/14 15:45:16;;;;;;;0.30;0.30;;;14.90;99.90;;;;;;4936974;29;20568;-73
2024/02/14 15:47:46;;;;;;;0.33;0.33;;;14.90;99.90;;;;;;4954826;29;20170;-74
2024/02/14 15:50:12;;;;;;;0.30;0.30;;;14.90;99.90;;;;;;4937562;29;20783;-74
2024/02/14 15:52:39;;;;;;;0.30;0.30;;;14.90;99.90;;;;;;4952977;29;20745;-73
2024/02/14 15:55:07;;;;;;;0.33;0.33;;;14.90;99.90;;;;;;4935399;29;20421;-73
2024/02/14 15:57:36;;;;;;;0.30;0.30;;;14.80;99.90;;;;;;4935759;29;20414;-74
2024/02/14 16:00:05;;;;;;;0.30;0.30;;;14.80;99.90;;;;;;4935703;29;20458;-72
2024/02/14 16:02:32;;;;;;;0.30;0.20;;;14.80;99.90;;;;;;4918427;29;20451;-73
2024/02/14 16:04:58;;;;;;;0.30;0.30;;;14.70;99.90;;;;;;4935048;29;20417;-73
2024/02/14 16:07:23;;;;;;;0.30;0.30;;;14.70;99.90;;;;;;4926430;29;20520;-72
2024/02/14 16:09:49;;;;;;;0.33;0.33;;;14.70;99.90;;;;;;4936954;29;20421;-71
2024/02/14 16:12:14;;;;;;;0.30;0.20;;;14.60;99.90;;;;;;4953073;29;20212;-74
2024/02/14 16:14:43;;;;;;;0.30;0.30;;;14.60;99.90;;;;;;4953552;29;20179;-75
2024/02/14 16:17:09;;;;;;;0.30;0.30;;;14.50;99.90;;;;;;4954377;29;20197;-71
2024/02/14 16:19:35;;;;;;;0.30;0.30;;;14.50;99.90;;;;;;4955559;29;20424;-73
2024/02/14 16:22:02;;;;;;;0.30;0.30;;;14.50;99.90;;;;;;4947453;29;20195;-71
2024/02/14 16:24:30;;;;;;;0.30;0.30;;;14.50;99.90;;;;;;4935730;29;20173;-74
2024/02/14 16:26:59;;;;;;;0.30;0.30;;;14.50;99.90;;;;;;4935582;29;20432;-71
2024/02/14 16:29:25;;;;;;;0.30;0.30;;;14.50;99.90;;;;;;4935758;29;20417;-72
2024/02/14 16:31:50;;;;;;;0.30;0.27;;;14.40;99.90;;;;;;4935437;29;20408;-76
2024/02/14 16:34:16;;;;;;;0.30;0.30;;;14.40;99.90;;;;;;4935672;29;20175;-74
2024/02/14 16:36:42;;;;;;;0.30;0.30;;;14.40;99.90;;;;;;4948959;29;20193;-72
2024/02/14 16:39:08;;;;;;;0.30;0.30;;;14.30;99.90;;;;;;4957035;28;20173;-70
2024/02/14 16:41:33;;;;;;;0.50;0.50;;;14.30;99.90;;;;;;4957675;29;20483;-75
2024/02/14 16:43:59;;;;;;;0.30;0.30;;;14.30;99.90;;;;;;4957466;29;20511;-73
2024/02/14 16:46:24;;;;;;;0.30;0.30;;;14.30;99.90;;;;;;4957050;29;20232;-72
2024/02/14 16:48:50;;;;;;;0.30;0.30;;;14.20;99.90;;;;;;4940170;29;20534;-70
2024/02/14 16:51:16;;;;;;;0.30;0.20;;;14.20;99.90;;;;;;4956818;29;20632;-69
2024/02/14 16:53:43;;;;;;;0.30;0.30;;;14.20;99.90;;;;;;4957315;29;20177;-70
2024/02/14 16:56:08;;;;;;;0.30;0.30;;;14.20;99.90;;;;;;4956829;28;20436;-70
2024/02/14 16:58:34;;;;;;;0.30;0.30;;;14.20;99.90;;;;;;4957233;29;20420;-71
2024/02/14 17:01:00;;;;;;;0.30;0.23;;;14.20;99.90;;;;;;4956909;29;20212;-69
2024/02/14 17:03:25;;;;;;;0.30;0.20;;;14.20;99.90;;;;;;4939885;29;20691;-69
2024/02/14 17:05:52;;;;;;;0.30;0.30;;;14.20;99.90;;;;;;4938776;29;20699;-69
2024/02/14 17:08:18;;;;;;;0.30;0.30;;;14.20;99.90;;;;;;4956845;29;20276;-71
2024/02/14 17:10:43;;;;;;;0.30;0.30;;;14.20;99.90;;;;;;4956873;29;20842;-71
2024/02/14 17:13:09;;;;;;;0.30;0.20;;;14.10;99.90;;;;;;4956661;29;20424;-70
2024/02/14 17:15:35;;;;;;;0.30;0.30;;;14.10;99.90;;;;;;4956298;28;20209;-70
2024/02/14 17:18:01;;;;;;;0.30;0.30;;;14.10;99.90;;;;;;4922702;29;20193;-68
2024/02/14 17:20:27;;;;;;;0.30;0.30;;;14.10;99.90;;;;;;4924149;29;20457;-70
2024/02/14 17:22:53;;;;;;;0.30;0.23;;;14.10;99.90;;;;;;4937372;29;20517;-71
2024/02/14 17:25:19;;;;;;;0.40;0.33;;;14.00;99.90;;;;;;4936784;29;20169;-69
2024/02/14 17:27:47;;;;;;;0.30;0.30;;;14.00;99.90;;;;;;4920496;29;20408;-68
2024/02/14 17:30:12;;;;;;;0.30;0.20;;;14.00;99.90;;;;;;4938930;29;20445;-68
2024/02/14 17:32:38;;;;;;;0.30;0.30;;;14.00;99.90;;;;;;4956326;29;20958;-68
2024/02/14 17:35:04;;;;;;;0.50;0.50;;;14.00;99.90;;;;;;4941496;29;20272;-69
2024/02/14 17:37:29;;;;;;;0.30;0.30;;;13.90;99.90;;;;;;4937284;29;20177;-69
2024/02/14 17:39:56;;;;;;;0.30;0.30;;;14.00;99.90;;;;;;4953197;29;20510;-72
2024/02/14 17:42:22;;;;;;;0.30;0.30;;;14.00;99.90;;;;;;4956909;29;20173;-72
2024/02/14 17:44:48;;;;;;;0.30;0.20;;;14.00;99.90;;;;;;4956655;28;20795;-70
2024/02/14 17:47:14;;;;;;;0.30;0.20;;;13.90;99.90;;;;;;4939654;29;20437;-72
2024/02/14 17:49:39;;;;;;;0.30;0.20;;;13.90;99.90;;;;;;4919444;29;20438;-69
2024/02/14 17:52:05;;;;;;;0.30;0.30;;;13.90;99.90;;;;;;4937411;29;20173;-75
2024/02/14 17:54:31;;;;;;;0.30;0.20;;;13.90;99.90;;;;;;4946660;29;20185;-69
2024/02/14 17:56:56;;;;;;;0.30;0.30;;;13.90;99.90;;;;;;4956692;28;20555;-67
2024/02/14 17:59:22;;;;;;;0.30;0.30;;;13.90;99.90;;;;;;4939231;29;20460;-70